Time;durP1;ratioP1;P1;durP2;ratioP2;P2;SDS_P1;SDS_P2;PMS_P1;PMS_P2;Temp;Humidity;BMP_temperature;BMP_pressure;BME280_temperature;BME280_humidity;BME280_pressure;Samples;Min_cycle;Max_cycle;Signal;HPM_P1;HPM_P2
2021/11/01 00:01:05;;;;;;;15.40;2.40;;;9.60;99.90;;;;;;5034520;28;20535;-76
2021/11/01 00:03:31;;;;;;;9.15;2.03;;;9.60;99.90;;;;;;5034239;28;20541;-77
2021/11/01 00:05:57;;;;;;;19.60;2.85;;;9.60;99.90;;;;;;5033891;28;20044;-77
2021/11/01 00:08:23;;;;;;;18.95;3.47;;;9.60;99.90;;;;;;5028169;28;20493;-77
2021/11/01 00:10:49;;;;;;;20.27;3.10;;;9.50;99.90;;;;;;5035407;28;20041;-76
2021/11/01 00:13:14;;;;;;;11.40;2.58;;;9.60;99.90;;;;;;5034330;28;20026;-77
2021/11/01 00:15:41;;;;;;;15.43;2.70;;;9.60;99.90;;;;;;5034026;28;20108;-77
2021/11/01 00:18:07;;;;;;;10.90;2.40;;;9.50;99.90;;;;;;5033301;28;20059;-76
2021/11/01 00:20:33;;;;;;;14.00;2.97;;;9.50;99.90;;;;;;5032442;28;20045;-75
2021/11/01 00:22:58;;;;;;;10.82;2.50;;;9.50;99.90;;;;;;5029059;28;20508;-75
2021/11/01 00:25:24;;;;;;;11.48;2.08;;;9.50;99.90;;;;;;5033454;28;20424;-76
2021/11/01 00:27:50;;;;;;;10.30;2.53;;;9.50;99.90;;;;;;5034113;28;20107;-77
2021/11/01 00:30:16;;;;;;;15.13;2.42;;;9.50;99.90;;;;;;5034056;28;20033;-76
2021/11/01 00:32:47;;;;;;;13.70;2.10;;;9.50;99.90;;;;;;5032866;28;20477;-77
2021/11/01 00:35:13;;;;;;;;;;;9.50;99.90;;;;;;5034134;28;20057;-76
2021/11/01 00:37:39;;;;;;;18.67;2.67;;;9.50;99.90;;;;;;5033548;28;19967;-77
2021/11/01 00:40:05;;;;;;;14.05;3.22;;;9.40;99.90;;;;;;5033381;28;20049;-77
2021/11/01 00:42:31;;;;;;;18.15;2.35;;;9.50;99.90;;;;;;5033516;28;20091;-76
2021/11/01 00:44:57;;;;;;;16.20;2.75;;;9.40;99.90;;;;;;5033735;28;20382;-76
2021/11/01 00:47:26;;;;;;;15.95;2.22;;;9.40;99.90;;;;;;5032507;28;20037;-77
2021/11/01 00:49:52;;;;;;;9.63;2.65;;;9.40;99.90;;;;;;5033756;28;20021;-76
2021/11/01 00:52:22;;;;;;;12.00;1.83;;;9.40;99.90;;;;;;5033543;28;20033;-77
2021/11/01 00:54:50;;;;;;;10.55;1.85;;;9.40;99.90;;;;;;5019689;28;20028;-76
2021/11/01 00:57:15;;;;;;;11.88;2.30;;;9.30;99.90;;;;;;5033500;28;20037;-77
2021/11/01 00:59:41;;;;;;;15.77;3.28;;;9.30;99.90;;;;;;5032194;28;20013;-77
2021/11/01 01:02:08;;;;;;;9.32;2.38;;;9.40;99.90;;;;;;5032554;28;20032;-78
2021/11/01 01:04:34;;;;;;;8.88;2.35;;;9.40;99.90;;;;;;5032777;28;20363;-76
2021/11/01 01:07:01;;;;;;;6.82;1.92;;;9.30;99.90;;;;;;5032912;28;20027;-79
2021/11/01 01:09:27;;;;;;;13.23;1.70;;;9.30;99.90;;;;;;5033111;28;20059;-77
2021/11/01 01:11:52;;;;;;;10.25;2.08;;;9.30;99.90;;;;;;5033337;28;20057;-78
2021/11/01 01:14:26;;;;;;;10.13;2.08;;;9.30;99.90;;;;;;5032445;28;20049;-77
2021/11/01 01:16:51;;;;;;;12.32;2.67;;;9.30;99.90;;;;;;5033221;28;20064;-78
2021/11/01 01:19:20;;;;;;;8.93;2.58;;;9.30;99.90;;;;;;5032155;28;20533;-77
2021/11/01 01:24:32;;;;;;;13.27;2.25;;;9.30;99.90;;;;;;5033033;28;20527;-77
2021/11/01 01:26:57;;;;;;;10.73;1.83;;;9.20;99.90;;;;;;5032883;28;20084;-77
2021/11/01 01:29:23;;;;;;;4.72;1.27;;;9.30;99.90;;;;;;5032031;28;20021;-77
2021/11/01 01:31:49;;;;;;;15.63;1.85;;;9.30;99.90;;;;;;5033647;28;20021;-77
2021/11/01 01:34:15;;;;;;;16.88;2.05;;;9.30;99.90;;;;;;5035384;28;20045;-77
2021/11/01 01:36:40;;;;;;;13.57;2.17;;;9.20;99.90;;;;;;5040173;28;20052;-77
2021/11/01 01:39:06;;;;;;;5.53;1.38;;;9.20;99.90;;;;;;5037826;28;20596;-77
2021/11/01 01:41:31;;;;;;;8.95;1.65;;;9.10;99.90;;;;;;5032722;28;20039;-78
2021/11/01 01:44:00;;;;;;;8.18;1.60;;;9.20;99.90;;;;;;5032061;28;20078;-78
2021/11/01 01:46:27;;;;;;;14.90;2.78;;;9.20;99.90;;;;;;5032125;28;20175;-77
2021/11/01 01:48:54;;;;;;;13.35;1.85;;;9.20;99.90;;;;;;5032658;28;20034;-77
2021/11/01 01:51:24;;;;;;;9.88;2.03;;;9.20;99.90;;;;;;5034331;28;20047;-78
2021/11/01 01:53:50;;;;;;;9.95;1.95;;;9.20;99.90;;;;;;5032530;28;20111;-76
2021/11/01 01:56:16;;;;;;;10.13;1.30;;;9.10;99.90;;;;;;5031408;28;20412;-77
2021/11/01 01:58:47;;;;;;;7.53;1.52;;;9.10;99.90;;;;;;5032103;28;20030;-77
2021/11/01 02:01:19;;;;;;;6.57;1.70;;;9.10;99.90;;;;;;5015726;28;20034;-76
2021/11/01 02:03:49;;;;;;;12.95;1.65;;;9.10;99.90;;;;;;5031597;28;20017;-77
2021/11/01 02:06:24;;;;;;;8.23;3.63;;;9.10;99.90;;;;;;5032329;28;20116;-77
2021/11/01 02:09:15;;;;;;;14.57;2.38;;;9.10;99.90;;;;;;5032187;28;20037;-77
2021/11/01 02:11:49;;;;;;;12.85;1.50;;;9.10;99.90;;;;;;5030847;28;20025;-78
2021/11/01 02:14:19;;;;;;;5.82;1.25;;;9.10;99.90;;;;;;5032354;28;20692;-77
2021/11/01 02:16:48;;;;;;;13.10;2.65;;;9.10;99.90;;;;;;5031912;28;20034;-77
2021/11/01 02:19:18;;;;;;;14.82;3.42;;;9.00;99.90;;;;;;5031737;28;20120;-77
2021/11/01 02:21:50;;;;;;;10.45;1.33;;;8.90;99.90;;;;;;5014051;28;20029;-76
2021/11/01 02:24:30;;;;;;;8.68;1.77;;;8.90;99.90;;;;;;5031784;28;20038;-77
2021/11/01 02:26:56;;;;;;;8.48;1.95;;;8.90;99.90;;;;;;5032019;28;20390;-77
2021/11/01 02:29:23;;;;;;;9.15;1.83;;;8.80;99.90;;;;;;5031566;28;20025;-77
2021/11/01 02:31:51;;;;;;;13.00;1.55;;;8.90;99.90;;;;;;5032933;28;20076;-77
2021/11/01 02:34:18;;;;;;;9.13;1.45;;;8.90;99.90;;;;;;5031779;28;20045;-77
2021/11/01 02:36:45;;;;;;;13.00;2.50;;;8.80;99.90;;;;;;5031499;28;20485;-76
2021/11/01 02:39:12;;;;;;;8.82;1.60;;;8.90;99.90;;;;;;5031446;28;20096;-76
2021/11/01 02:41:41;;;;;;;10.85;1.67;;;8.90;99.90;;;;;;5031931;28;20113;-76
2021/11/01 02:44:08;;;;;;;12.10;2.03;;;8.90;99.90;;;;;;5033465;28;20496;-78
2021/11/01 02:46:33;;;;;;;8.25;1.92;;;9.00;99.90;;;;;;5023150;28;20022;-76
2021/11/01 02:49:00;;;;;;;4.85;1.42;;;9.10;99.90;;;;;;5026018;28;20056;-75
2021/11/01 02:51:27;;;;;;;6.50;1.50;;;9.10;99.90;;;;;;5031771;28;20080;-76
2021/11/01 02:53:56;;;;;;;7.47;1.95;;;9.20;99.90;;;;;;5031210;28;20477;-77
2021/11/01 02:56:21;;;;;;;8.48;1.70;;;9.20;99.90;;;;;;5031282;28;20458;-75
2021/11/01 02:58:47;;;;;;;11.77;2.25;;;9.20;99.90;;;;;;5030727;28;20041;-77
2021/11/01 03:01:16;;;;;;;9.02;1.83;;;9.10;99.90;;;;;;5031026;28;20033;-77
2021/11/01 03:03:43;;;;;;;5.90;1.70;;;9.20;99.90;;;;;;5031606;28;20033;-77
2021/11/01 03:06:09;;;;;;;4.10;1.85;;;9.20;99.90;;;;;;5030354;28;20385;-76
2021/11/01 03:08:36;;;;;;;11.07;1.80;;;9.30;99.90;;;;;;5018335;28;20056;-77
2021/11/01 03:11:02;;;;;;;7.50;2.38;;;9.30;99.90;;;;;;5031652;28;20151;-76
2021/11/01 03:13:31;;;;;;;6.22;1.50;;;9.30;99.90;;;;;;5031578;28;20017;-77
2021/11/01 03:15:58;;;;;;;7.72;1.75;;;9.40;99.90;;;;;;5031171;28;20061;-77
2021/11/01 03:18:29;;;;;;;10.88;1.80;;;9.40;99.90;;;;;;5031063;28;20502;-76
2021/11/01 03:20:57;;;;;;;11.10;2.10;;;9.50;99.90;;;;;;5030740;28;20029;-78
2021/11/01 03:23:27;;;;;;;10.50;2.60;;;9.50;99.90;;;;;;5034159;28;20076;-76
2021/11/01 03:26:00;;;;;;;6.53;1.48;;;9.50;99.90;;;;;;5035229;28;20109;-78
2021/11/01 03:28:26;;;;;;;16.08;3.20;;;9.40;99.90;;;;;;5034359;28;20057;-78
2021/11/01 03:30:58;;;;;;;8.73;2.03;;;9.40;99.90;;;;;;5035346;28;20033;-77
2021/11/01 03:33:25;;;;;;;5.57;2.20;;;9.30;99.90;;;;;;5034739;28;20075;-77
2021/11/01 03:35:53;;;;;;;4.20;1.23;;;9.30;99.90;;;;;;5034410;28;20037;-77
2021/11/01 03:38:20;;;;;;;5.97;1.45;;;9.20;99.90;;;;;;5034910;28;20041;-77
2021/11/01 03:40:49;;;;;;;13.85;2.10;;;9.20;99.90;;;;;;5035315;28;20053;-77
2021/11/01 03:43:26;;;;;;;11.90;1.60;;;9.20;99.90;;;;;;5034369;28;20022;-77
2021/11/01 03:45:52;;;;;;;7.90;2.35;;;9.30;99.90;;;;;;5034928;28;20021;-77
2021/11/01 03:48:21;;;;;;;13.73;1.67;;;9.20;99.90;;;;;;5035002;28;20021;-77
2021/11/01 03:50:56;;;;;;;9.90;1.95;;;9.30;99.90;;;;;;5034088;28;20450;-77
2021/11/01 03:53:22;;;;;;;7.50;1.85;;;9.20;99.90;;;;;;5034498;28;20034;-77
2021/11/01 03:55:48;;;;;;;13.23;1.77;;;9.20;99.90;;;;;;5034209;28;20100;-77
2021/11/01 03:58:14;;;;;;;15.13;1.60;;;9.10;99.90;;;;;;5034970;28;20072;-77
2021/11/01 04:00:40;;;;;;;7.13;1.65;;;9.10;99.90;;;;;;5034779;28;20025;-78
2021/11/01 04:03:07;;;;;;;6.72;1.83;;;9.10;99.90;;;;;;5033987;28;20053;-77
2021/11/01 04:05:32;;;;;;;6.80;1.75;;;9.00;99.90;;;;;;5034530;28;20470;-77
2021/11/01 04:07:58;;;;;;;16.83;2.30;;;9.90;99.90;;;;;;5034765;28;20029;-78
2021/11/01 04:10:24;;;;;;;12.07;2.15;;;9.00;99.90;;;;;;5033572;28;20497;-77
2021/11/01 04:12:50;;;;;;;8.13;2.35;;;9.00;99.90;;;;;;5020555;28;20144;-77
2021/11/01 04:15:22;;;;;;;12.07;2.33;;;9.00;99.90;;;;;;5034633;28;20104;-77
2021/11/01 04:18:00;;;;;;;10.38;2.00;;;9.00;99.90;;;;;;5033711;28;20037;-77
2021/11/01 04:20:31;;;;;;;12.23;2.42;;;8.90;99.90;;;;;;5021371;28;20028;-77
2021/11/01 04:23:10;;;;;;;9.63;2.85;;;8.90;99.90;;;;;;5034623;28;20040;-76
2021/11/01 04:25:36;;;;;;;8.43;1.70;;;8.90;99.90;;;;;;5033442;28;20476;-77
2021/11/01 04:28:02;;;;;;;8.30;1.95;;;8.80;99.90;;;;;;5034117;28;20065;-76
2021/11/01 04:30:34;;;;;;;6.15;1.48;;;8.80;99.90;;;;;;5033561;28;20022;-76
2021/11/01 04:33:03;;;;;;;12.05;2.83;;;8.80;99.90;;;;;;5033264;28;20520;-76
2021/11/01 04:35:34;;;;;;;13.18;3.08;;;8.80;99.90;;;;;;5033828;28;20054;-76
2021/11/01 04:38:21;;;;;;;7.93;1.83;;;8.80;99.90;;;;;;5035127;28;20037;-76
2021/11/01 04:54:15;;;;;;;12.95;2.30;;;8.60;99.90;;;;;;5036300;28;20402;-77
2021/11/01 04:56:42;;;;;;;15.48;2.35;;;8.60;99.90;;;;;;5033485;28;20053;-79
2021/11/01 04:59:09;;;;;;;10.90;2.22;;;8.60;99.90;;;;;;5032939;28;20481;-78
2021/11/01 05:01:38;;;;;;;13.45;1.88;;;8.60;99.90;;;;;;5033478;28;20033;-78
2021/11/01 05:04:11;;;;;;;5.45;1.58;;;8.50;99.90;;;;;;5034675;28;20041;-79
2021/11/01 05:06:42;;;;;;;12.55;2.13;;;8.60;99.90;;;;;;5032900;28;20528;-78
2021/11/01 05:09:12;;;;;;;11.82;1.80;;;8.70;99.90;;;;;;5033568;28;20033;-78
2021/11/01 05:11:45;;;;;;;14.38;1.52;;;8.70;99.90;;;;;;5033101;28;20025;-76
2021/11/01 05:14:14;;;;;;;12.90;2.35;;;8.70;99.90;;;;;;5032707;28;20515;-77
2021/11/01 05:19:19;;;;;;;10.93;1.92;;;8.70;99.90;;;;;;5033508;28;20026;-77
2021/11/01 05:21:54;;;;;;;17.75;2.78;;;8.70;99.90;;;;;;5032411;28;20028;-76
2021/11/01 05:27:19;;;;;;;10.35;2.03;;;8.70;99.90;;;;;;5033185;28;20037;-78
2021/11/01 05:29:45;;;;;;;14.02;3.65;;;8.70;99.90;;;;;;5032459;28;20048;-77
2021/11/01 05:32:16;;;;;;;4.97;1.27;;;8.70;99.90;;;;;;5033018;28;20021;-77
2021/11/01 05:34:42;;;;;;;9.18;1.90;;;8.80;99.90;;;;;;5031661;28;20057;-77
2021/11/01 05:37:08;;;;;;;8.23;2.33;;;8.80;99.90;;;;;;5032716;28;20041;-77
2021/11/01 05:39:35;;;;;;;8.68;1.75;;;8.80;99.90;;;;;;5032689;28;20017;-77
2021/11/01 05:42:00;;;;;;;9.98;1.67;;;8.70;99.90;;;;;;5032130;28;20060;-76
2021/11/01 05:44:26;;;;;;;9.10;1.88;;;8.70;99.90;;;;;;5031967;28;20403;-77
2021/11/01 05:46:53;;;;;;;7.63;1.85;;;8.60;99.90;;;;;;5032654;28;20049;-77
2021/11/01 05:49:22;;;;;;;10.85;2.08;;;8.70;99.90;;;;;;5031748;28;20037;-78
2021/11/01 05:51:53;;;;;;;14.68;1.88;;;8.70;99.90;;;;;;5032330;28;20017;-77
2021/11/01 05:54:22;;;;;;;15.05;1.77;;;8.70;99.90;;;;;;5032744;28;20033;-77
2021/11/01 05:56:59;;;;;;;13.40;1.95;;;8.70;99.90;;;;;;5031652;28;20466;-77
2021/11/01 06:02:34;;;;;;;9.07;1.80;;;8.70;99.90;;;;;;5032370;28;20022;-76
2021/11/01 06:05:10;;;;;;;9.35;1.70;;;8.70;99.90;;;;;;5018826;28;20038;-77
2021/11/01 06:10:50;;;;;;;17.45;2.30;;;8.70;99.90;;;;;;5031393;28;20592;-77
2021/11/01 06:13:32;;;;;;;9.25;1.55;;;8.70;99.90;;;;;;5032474;28;20026;-77
2021/11/01 06:15:59;;;;;;;15.38;2.75;;;8.70;99.90;;;;;;5032134;28;20029;-77
2021/11/01 06:18:35;;;;;;;12.02;1.83;;;8.70;99.90;;;;;;5031303;28;20083;-77
2021/11/01 06:21:07;;;;;;;9.82;1.85;;;8.70;99.90;;;;;;5030315;28;20036;-77
2021/11/01 06:23:34;;;;;;;16.95;2.05;;;8.70;99.90;;;;;;5029468;28;20029;-79
2021/11/01 06:26:00;;;;;;;5.70;1.50;;;8.60;99.90;;;;;;5030560;28;20045;-76
2021/11/01 06:28:26;;;;;;;6.25;1.50;;;8.60;99.90;;;;;;5029620;28;20029;-77
2021/11/01 06:31:17;;;;;;;15.45;4.05;;;8.60;99.90;;;;;;5029777;28;20413;-76
2021/11/01 06:33:53;;;;;;;7.25;1.38;;;8.60;99.90;;;;;;5029779;28;20052;-77
2021/11/01 06:39:26;;;;;;;11.27;1.83;;;8.60;99.90;;;;;;5029782;28;20421;-76
2021/11/01 06:50:00;;;;;;;11.93;1.77;;;8.60;99.90;;;;;;5030060;28;20079;-76
2021/11/01 06:53:01;;;;;;;13.98;2.90;;;8.70;99.90;;;;;;5030015;28;20025;-77
2021/11/01 06:55:40;;;;;;;15.00;2.45;;;8.80;99.90;;;;;;5029118;28;20026;-77
2021/11/01 06:58:43;;;;;;;14.45;1.85;;;8.80;99.90;;;;;;5034590;28;20053;-76
2021/11/01 07:17:26;;;;;;;13.13;2.83;;;9.60;99.90;;;;;;5034200;28;20034;-78
2021/11/01 07:22:41;;;;;;;9.65;2.58;;;9.70;99.90;;;;;;5034704;28;20075;-77
2021/11/01 07:38:54;;;;;;;15.30;2.25;;;9.80;99.90;;;;;;5034938;28;20386;-80
2021/11/01 08:27:55;;;;;;;7.97;2.28;;;10.10;99.90;;;;;;5033716;28;20026;-79
2021/11/01 09:05:38;;;;;;;7.13;1.40;;;10.50;99.90;;;;;;5021915;28;20075;-80
2021/11/01 09:08:28;;;;;;;11.45;3.33;;;10.60;99.90;;;;;;5033664;28;20017;-79
2021/11/01 09:11:30;;;;;;;6.07;1.60;;;10.60;99.90;;;;;;5033739;28;20059;-79
2021/11/01 09:21:51;;;;;;;11.38;1.40;;;10.80;99.90;;;;;;5032026;28;20021;-80
2021/11/01 09:26:52;;;;;;;5.75;1.50;;;10.80;99.90;;;;;;5032776;28;20023;-80
2021/11/01 09:40:55;;;;;;;7.45;1.10;;;11.00;99.90;;;;;;5033477;28;20021;-79
2021/11/01 09:42:45;;;;;;;5.57;1.48;;;11.10;99.90;;;;;;5031876;28;20028;-81
2021/11/01 09:45:10;;;;;;;8.60;2.40;;;11.10;99.90;;;;;;5033145;28;20029;-80
2021/11/01 09:47:37;;;;;;;6.25;1.95;;;11.10;99.90;;;;;;5031979;28;20021;-80
2021/11/01 09:50:04;;;;;;;5.13;1.27;;;11.20;99.90;;;;;;5033257;28;20052;-80
2021/11/01 09:52:31;;;;;;;6.35;1.10;;;11.20;99.90;;;;;;5032552;28;20539;-80
2021/11/01 09:55:03;;;;;;;7.97;1.75;;;11.20;99.90;;;;;;5025409;28;20034;-81
2021/11/01 09:57:35;;;;;;;4.95;1.40;;;11.30;99.90;;;;;;5026757;28;20025;-81
2021/11/01 10:00:01;;;;;;;6.55;1.33;;;11.30;99.90;;;;;;5033335;28;20036;-80
2021/11/01 10:02:26;;;;;;;9.18;1.25;;;11.40;99.90;;;;;;5032173;28;20025;-80
2021/11/01 10:04:54;;;;;;;3.47;0.90;;;11.30;99.90;;;;;;5033415;28;20083;-79
2021/11/01 10:07:30;;;;;;;8.32;1.30;;;11.40;99.90;;;;;;5035035;28;20032;-80
2021/11/01 10:10:05;;;;;;;4.53;0.95;;;11.50;99.90;;;;;;5034310;28;20096;-80
2021/11/01 10:12:34;;;;;;;8.52;1.30;;;11.50;99.90;;;;;;5032792;28;20022;-80
2021/11/01 10:18:08;;;;;;;5.18;1.30;;;11.60;99.90;;;;;;5031839;28;20405;-79
2021/11/01 10:20:39;;;;;;;3.92;1.50;;;11.60;99.90;;;;;;5020923;28;20029;-79
2021/11/01 10:23:25;;;;;;;5.80;1.30;;;11.60;99.90;;;;;;5031970;28;20017;-79
2021/11/01 10:26:06;;;;;;;10.35;1.10;;;11.60;99.90;;;;;;5032915;28;20116;-79
2021/11/01 10:28:33;;;;;;;5.50;1.33;;;11.60;99.90;;;;;;5032439;28;20029;-80
2021/11/01 10:31:06;;;;;;;4.18;1.08;;;11.70;99.90;;;;;;5032037;28;20030;-80
2021/11/01 10:33:44;;;;;;;6.40;1.13;;;11.80;99.90;;;;;;5032141;28;20030;-80
2021/11/01 10:36:29;;;;;;;9.23;1.70;;;11.90;99.90;;;;;;5026092;28;20032;-80
2021/11/01 10:39:06;;;;;;;4.63;1.10;;;11.90;99.90;;;;;;5026527;28;20034;-78
2021/11/01 10:56:16;;;;;;;5.95;0.90;;;12.00;99.90;;;;;;5035878;28;20092;-80
2021/11/01 11:14:47;;;;;;;3.60;1.20;;;12.10;99.90;;;;;;5031710;28;20030;-81
2021/11/01 11:17:20;;;;;;;4.47;1.52;;;12.00;99.90;;;;;;5032123;28;20524;-79
2021/11/01 11:20:00;;;;;;;8.70;1.70;;;12.10;99.90;;;;;;5031231;28;20038;-80
2021/11/01 11:25:18;;;;;;;7.00;1.40;;;12.20;99.90;;;;;;5028748;28;20022;-79
2021/11/01 11:28:15;;;;;;;6.30;1.70;;;12.20;99.90;;;;;;5018248;28;20444;-79
2021/11/01 11:30:59;;;;;;;4.22;2.10;;;12.30;99.90;;;;;;5031359;28;20465;-80
2021/11/01 11:47:08;;;;;;;;;;;12.50;99.90;;;;;;5035914;28;20060;-80
2021/11/01 11:49:35;;;;;;;6.95;1.40;;;12.60;99.90;;;;;;5034923;28;19924;-80
2021/11/01 11:52:12;;;;;;;6.55;1.50;;;12.70;99.90;;;;;;5035961;28;20104;-80
2021/11/01 11:54:49;;;;;;;6.82;2.10;;;12.80;99.90;;;;;;5030299;28;20109;-77
2021/11/01 11:57:23;;;;;;;2.63;1.40;;;12.80;99.90;;;;;;5027704;28;20029;-79
2021/11/01 11:59:51;;;;;;;4.13;2.08;;;12.90;99.90;;;;;;5034843;28;20037;-79
2021/11/01 12:02:39;;;;;;;5.72;1.63;;;12.90;99.90;;;;;;5034037;28;20492;-80
2021/11/01 12:05:30;;;;;;;8.13;2.50;;;12.90;99.90;;;;;;5034673;28;20460;-78
2021/11/01 12:08:12;;;;;;;5.00;1.60;;;13.00;99.90;;;;;;5034816;28;20040;-79
2021/11/01 12:11:12;;;;;;;4.68;1.40;;;13.00;99.90;;;;;;5034507;28;20040;-81
2021/11/01 12:19:01;;;;;;;2.30;1.35;;;13.00;99.90;;;;;;5031392;28;20040;-76
2021/11/01 12:21:27;;;;;;;4.47;1.67;;;13.00;99.90;;;;;;5033988;28;20028;-76
2021/11/01 12:23:54;;;;;;;5.15;1.30;;;13.10;99.90;;;;;;5033743;28;20026;-76
2021/11/01 12:26:25;;;;;;;3.50;1.23;;;13.10;99.90;;;;;;5033820;28;20039;-76
2021/11/01 12:29:00;;;;;;;5.95;1.88;;;13.10;99.90;;;;;;5034104;28;20482;-76
2021/11/01 12:31:27;;;;;;;14.73;1.90;;;13.20;99.90;;;;;;5033331;28;20025;-76
2021/11/01 12:34:06;;;;;;;5.55;1.17;;;13.20;99.90;;;;;;5032368;28;20060;-77
2021/11/01 12:36:52;;;;;;;4.60;1.15;;;13.20;99.90;;;;;;5031950;28;20112;-78
2021/11/01 12:39:22;;;;;;;2.78;1.55;;;13.20;99.90;;;;;;5033894;28;20121;-77
2021/11/01 12:58:41;;;;;;;12.45;1.85;;;13.70;99.90;;;;;;5032707;28;20158;-75
2021/11/01 13:01:12;;;;;;;6.05;1.52;;;13.70;99.90;;;;;;5033391;28;20029;-76
2021/11/01 13:03:39;;;;;;;6.82;1.80;;;13.70;99.90;;;;;;5033294;28;20022;-76
2021/11/01 13:06:07;;;;;;;4.97;1.20;;;13.70;99.90;;;;;;5032580;28;20067;-77
2021/11/01 13:08:43;;;;;;;8.88;1.83;;;13.60;99.90;;;;;;5033002;28;20386;-76
2021/11/01 13:11:26;;;;;;;3.97;1.60;;;13.60;99.90;;;;;;5032811;28;20382;-78
2021/11/01 13:14:28;;;;;;;2.50;1.40;;;13.60;99.90;;;;;;5033529;28;20497;-76
2021/11/01 13:19:47;;;;;;;8.45;1.70;;;13.40;99.90;;;;;;5032579;28;20401;-77
2021/11/01 13:22:21;;;;;;;8.93;1.92;;;13.40;99.90;;;;;;5033198;28;20105;-77
2021/11/01 13:38:31;;;;;;;8.50;2.25;;;13.60;99.90;;;;;;5035637;28;20128;-77
2021/11/01 13:40:57;;;;;;;8.90;2.17;;;13.50;99.90;;;;;;5032672;28;20033;-76
2021/11/01 13:43:28;;;;;;;5.35;2.30;;;13.50;99.90;;;;;;5032756;28;20029;-77
2021/11/01 13:45:58;;;;;;;3.90;1.85;;;13.50;99.90;;;;;;5032922;28;20021;-76
2021/11/01 13:48:26;;;;;;;4.53;2.67;;;13.50;99.90;;;;;;5032917;28;20036;-76
2021/11/01 13:51:10;;;;;;;8.10;2.03;;;13.40;99.90;;;;;;5033748;28;20107;-76
2021/11/01 13:53:47;;;;;;;4.78;2.10;;;13.40;99.90;;;;;;5033182;28;20075;-77
2021/11/01 13:56:24;;;;;;;7.97;1.65;;;13.40;99.90;;;;;;5032726;28;20048;-76
2021/11/01 13:58:58;;;;;;;7.47;1.75;;;13.40;99.90;;;;;;5032573;28;20392;-76
2021/11/01 14:01:42;;;;;;;6.05;2.42;;;13.40;99.90;;;;;;5031734;28;20021;-77
2021/11/01 14:15:03;;;;;;;5.28;2.38;;;13.40;99.90;;;;;;5028762;28;20041;-77
2021/11/01 14:20:30;;;;;;;4.82;2.05;;;13.30;99.90;;;;;;5032477;28;20021;-76
2021/11/01 14:28:39;;;;;;;;;;;13.10;99.90;;;;;;5024909;28;20685;-78
2021/11/01 14:31:24;;;;;;;5.88;1.77;;;13.00;99.90;;;;;;5024359;28;20399;-78
2021/11/01 15:09:14;;;;;;;4.47;1.98;;;11.30;99.90;;;;;;5035003;28;20567;-81
2021/11/01 15:19:41;;;;;;;1.00;0.90;;;10.70;99.90;;;;;;5036743;28;20044;-79
2021/11/01 15:33:10;;;;;;;0.50;0.50;;;10.40;99.90;;;;;;5005946;28;20121;-79
2021/11/01 15:38:44;;;;;;;4.05;0.57;;;10.30;99.90;;;;;;5002355;28;20052;-79
2021/11/01 16:19:16;;;;;;;0.95;0.57;;;10.00;99.90;;;;;;5027121;28;20470;-84
2021/11/01 16:21:43;;;;;;;3.13;0.60;;;9.90;99.90;;;;;;5033566;28;20469;-82
2021/11/01 16:24:12;;;;;;;1.50;0.60;;;9.80;99.90;;;;;;5035276;28;20033;-84
2021/11/01 16:26:37;;;;;;;2.50;0.80;;;9.70;99.90;;;;;;5033131;28;20029;-82
2021/11/01 16:31:46;;;;;;;1.23;0.65;;;9.50;99.90;;;;;;5031211;28;20112;-81
2021/11/01 16:34:17;;;;;;;1.15;0.70;;;9.50;99.90;;;;;;5030608;28;20065;-81
2021/11/01 16:36:57;;;;;;;6.95;2.13;;;9.40;99.90;;;;;;5033371;28;20025;-83
2021/11/01 16:39:29;;;;;;;1.65;0.93;;;9.30;99.90;;;;;;5035774;28;20037;-81
2021/11/01 16:41:57;;;;;;;1.60;0.90;;;9.30;99.90;;;;;;5031825;28;20394;-83
2021/11/01 16:44:31;;;;;;;1.98;0.93;;;9.10;99.90;;;;;;5032097;28;20026;-83
2021/11/01 16:46:58;;;;;;;1.20;0.70;;;9.10;99.90;;;;;;5034426;28;20053;-82
2021/11/01 16:49:24;;;;;;;0.60;0.57;;;9.00;99.90;;;;;;5033377;28;20036;-82
2021/11/01 16:51:51;;;;;;;1.33;0.57;;;9.10;99.90;;;;;;5034125;28;20049;-82
2021/11/01 16:54:21;;;;;;;4.13;0.60;;;9.00;99.90;;;;;;5032633;28;20477;-82
2021/11/01 16:59:39;;;;;;;2.40;0.40;;;8.90;99.90;;;;;;5030863;28;20477;-81
2021/11/01 17:04:43;;;;;;;1.33;0.50;;;8.80;99.90;;;;;;5029198;28;20083;-81
2021/11/01 17:26:01;;;;;;;1.42;0.70;;;8.60;99.90;;;;;;5031836;28;20029;-81
2021/11/01 17:34:39;;;;;;;0.70;0.57;;;8.50;99.90;;;;;;5030038;28;20433;-81
2021/11/01 18:36:11;;;;;;;8.70;2.25;;;8.40;99.90;;;;;;5025545;28;20033;-81
2021/11/01 18:43:28;;;;;;;3.00;2.35;;;8.40;99.90;;;;;;5028724;28;20065;-81
2021/11/01 18:51:22;;;;;;;4.22;2.35;;;8.20;99.90;;;;;;5025973;28;20060;-81
2021/11/01 18:54:17;;;;;;;3.38;3.08;;;8.20;99.90;;;;;;5034615;28;20434;-81
2021/11/01 18:56:44;;;;;;;4.75;3.05;;;8.20;99.90;;;;;;5036574;28;20025;-83
2021/11/01 18:59:12;;;;;;;2.83;2.63;;;8.20;99.90;;;;;;5037101;28;20127;-81
2021/11/01 19:01:42;;;;;;;3.63;3.28;;;8.10;99.90;;;;;;5036012;28;20439;-81
2021/11/01 19:04:16;;;;;;;3.85;2.88;;;8.10;99.90;;;;;;5034675;28;20481;-80
2021/11/01 19:07:00;;;;;;;7.22;3.17;;;8.10;99.90;;;;;;5036008;28;20033;-81
2021/11/01 19:09:45;;;;;;;3.30;2.70;;;8.10;99.90;;;;;;5035894;28;20109;-81
2021/11/01 19:18:26;;;;;;;3.00;2.70;;;8.00;99.90;;;;;;5032965;28;20443;-82
2021/11/01 20:02:49;;;;;;;4.88;3.53;;;7.90;99.90;;;;;;5034355;28;20062;-82
2021/11/01 20:05:15;;;;;;;4.50;2.78;;;7.60;99.90;;;;;;5033212;28;20026;-80
2021/11/01 20:13:49;;;;;;;2.88;2.50;;;7.50;99.90;;;;;;4979808;28;20073;-80
2021/11/01 21:26:25;;;;;;;6.05;3.53;;;7.10;99.90;;;;;;5031108;28;20032;-80
2021/11/01 21:28:51;;;;;;;7.03;3.05;;;7.10;99.90;;;;;;5017882;28;20049;-81
2021/11/01 21:31:18;;;;;;;4.13;2.92;;;7.10;99.90;;;;;;5032178;28;20116;-80
2021/11/01 21:33:45;;;;;;;5.03;3.45;;;7.10;99.90;;;;;;5032051;28;20037;-80
2021/11/01 21:36:13;;;;;;;6.70;4.30;;;7.10;99.90;;;;;;5025953;28;20033;-81
2021/11/01 21:38:40;;;;;;;5.30;3.58;;;7.00;99.90;;;;;;5025455;28;20444;-81
2021/11/01 21:41:06;;;;;;;8.25;4.28;;;7.10;99.90;;;;;;5029841;28;20025;-80
2021/11/01 21:43:32;;;;;;;6.93;4.40;;;7.00;99.90;;;;;;5030986;28;20029;-79
2021/11/01 21:45:57;;;;;;;5.32;3.88;;;7.00;99.90;;;;;;5030839;28;20433;-79
2021/11/01 21:48:26;;;;;;;5.53;3.80;;;7.00;99.90;;;;;;5031747;28;20529;-80
2021/11/01 21:50:52;;;;;;;4.78;3.65;;;7.10;99.90;;;;;;5031516;28;20596;-80
2021/11/01 21:53:23;;;;;;;4.80;4.18;;;7.00;99.90;;;;;;5030888;28;20390;-80
2021/11/01 21:55:48;;;;;;;4.88;3.95;;;7.70;99.90;;;;;;5031848;28;20096;-80
2021/11/01 22:43:31;;;;;;;4.90;3.78;;;6.80;99.90;;;;;;5029245;28;20030;-79
2021/11/01 22:56:49;;;;;;;4.93;4.00;;;6.70;99.90;;;;;;5030906;28;20087;-80
2021/11/01 22:59:15;;;;;;;5.18;4.18;;;6.70;99.90;;;;;;5032674;28;20502;-78
2021/11/01 23:01:41;;;;;;;7.53;3.97;;;6.70;99.90;;;;;;5033301;28;20039;-78
2021/11/01 23:04:30;;;;;;;11.65;4.10;;;6.60;99.90;;;;;;5031400;28;20025;-77
2021/11/01 23:31:31;;;;;;;7.78;4.80;;;6.50;99.90;;;;;;5031225;28;20080;-78
2021/11/01 23:33:59;;;;;;;7.00;4.90;;;6.50;99.90;;;;;;5031108;28;20398;-78
2021/11/01 23:36:25;;;;;;;7.00;4.45;;;6.50;99.90;;;;;;5031521;28;20476;-78
2021/11/01 23:38:53;;;;;;;8.32;5.03;;;6.50;99.90;;;;;;5031243;28;20524;-79
2021/11/01 23:41:22;;;;;;;8.85;4.57;;;6.50;99.90;;;;;;5035377;28;20025;-78
2021/11/01 23:43:49;;;;;;;8.85;5.38;;;6.50;99.90;;;;;;5035151;28;20544;-79
2021/11/01 23:46:15;;;;;;;6.00;5.15;;;6.50;99.90;;;;;;5034504;28;20354;-79
2021/11/01 23:48:42;;;;;;;7.97;5.38;;;6.50;99.90;;;;;;5034829;28;20395;-79
2021/11/01 23:51:10;;;;;;;6.45;4.82;;;6.50;99.90;;;;;;5035172;28;20462;-79
2021/11/01 23:53:42;;;;;;;8.73;5.68;;;6.50;99.90;;;;;;5034162;28;20041;-79
2021/11/01 23:56:09;;;;;;;7.28;5.07;;;6.50;99.90;;;;;;5035334;28;20167;-78
2021/11/01 23:58:36;;;;;;;7.07;5.32;;;6.40;99.90;;;;;;5027453;28;20033;-78
